Time;durP1;ratioP1;P1;durP2;ratioP2;P2;SDS_P1;SDS_P2;PMS_P1;PMS_P2;Temp;Humidity;BMP_temperature;BMP_pressure;BME280_temperature;BME280_humidity;BME280_pressure;Samples;Min_cycle;Max_cycle;Signal;HPM_P1;HPM_P2
2021/11/05 00:00:28;;;;;;;272.05;77.40;;;11.60;99.90;;;;;;5052906;28;20116;-86
2021/11/05 00:02:57;;;;;;;322.45;84.43;;;11.70;99.90;;;;;;5055998;28;20495;-87
2021/11/05 00:05:28;;;;;;;310.30;83.13;;;11.70;99.90;;;;;;5056761;28;20029;-86
2021/11/05 00:07:54;;;;;;;;;;;11.70;99.90;;;;;;5057376;28;20025;-86
2021/11/05 00:10:20;;;;;;;292.65;81.55;;;11.80;99.90;;;;;;5055260;28;19999;-87
2021/11/05 00:12:46;;;;;;;312.02;91.80;;;11.80;99.90;;;;;;5054310;28;20031;-86
2021/11/05 00:15:13;;;;;;;326.63;90.60;;;11.90;99.90;;;;;;5035427;28;20026;-86
2021/11/05 00:17:38;;;;;;;380.08;95.03;;;11.90;99.90;;;;;;5036529;28;20041;-87
2021/11/05 00:20:05;;;;;;;352.35;95.30;;;12.00;99.90;;;;;;5036773;28;20017;-87
2021/11/05 00:22:32;;;;;;;388.73;97.80;;;12.10;99.90;;;;;;5035900;28;20494;-87
2021/11/05 00:24:57;;;;;;;362.45;98.28;;;12.10;99.90;;;;;;5034952;28;20052;-87
2021/11/05 00:27:23;;;;;;;350.40;94.65;;;12.10;99.90;;;;;;5034906;28;20422;-87
2021/11/05 00:29:48;;;;;;;426.80;106.50;;;12.10;99.90;;;;;;5035910;28;20389;-86
2021/11/05 00:32:14;;;;;;;420.05;105.40;;;12.20;99.90;;;;;;5035318;28;20017;-86
2021/11/05 00:34:40;;;;;;;344.08;89.75;;;12.20;99.90;;;;;;5034789;28;20026;-86
2021/11/05 00:37:06;;;;;;;320.63;89.40;;;12.20;99.90;;;;;;5034956;28;20041;-86
2021/11/05 00:39:32;;;;;;;360.27;88.00;;;12.20;99.90;;;;;;5036226;28;20096;-85
2021/11/05 00:41:58;;;;;;;398.48;90.57;;;12.20;99.90;;;;;;5036509;28;20062;-85
2021/11/05 00:44:24;;;;;;;296.27;81.32;;;12.20;99.90;;;;;;5034945;28;20021;-85
2021/11/05 00:46:50;;;;;;;309.13;83.95;;;12.20;99.90;;;;;;5034633;28;20025;-85
2021/11/05 00:49:16;;;;;;;283.17;83.10;;;12.20;99.90;;;;;;5035021;28;20029;-85
2021/11/05 00:51:41;;;;;;;316.88;84.72;;;12.20;99.90;;;;;;5051308;28;20384;-85
2021/11/05 00:54:08;;;;;;;308.15;86.75;;;12.20;99.90;;;;;;5054544;28;20024;-85
2021/11/05 00:56:35;;;;;;;359.55;92.22;;;12.30;99.90;;;;;;5054447;28;20573;-86
2021/11/05 00:59:01;;;;;;;385.83;96.88;;;12.30;99.90;;;;;;5055959;28;20025;-87
2021/11/05 01:01:27;;;;;;;350.60;92.60;;;12.40;99.90;;;;;;5054608;28;20028;-87
2021/11/05 01:03:52;;;;;;;345.38;85.75;;;12.30;99.90;;;;;;5054661;28;20060;-87
2021/11/05 01:06:18;;;;;;;308.63;77.72;;;12.40;99.90;;;;;;5055468;28;20499;-87
2021/11/05 01:08:44;;;;;;;292.45;76.60;;;12.30;99.90;;;;;;5055539;28;20475;-86
2021/11/05 01:11:10;;;;;;;242.52;71.47;;;12.40;99.90;;;;;;5039699;28;20033;-86
2021/11/05 01:13:36;;;;;;;273.38;73.97;;;12.40;99.90;;;;;;5034365;28;20048;-86
2021/11/05 01:16:02;;;;;;;276.05;74.38;;;12.40;99.90;;;;;;5033977;28;20025;-85
2021/11/05 01:18:28;;;;;;;264.80;74.32;;;12.40;99.90;;;;;;5034797;28;20442;-86
2021/11/05 01:20:53;;;;;;;353.08;89.53;;;12.40;99.90;;;;;;5034180;28;20025;-86
2021/11/05 01:23:21;;;;;;;269.88;73.88;;;12.40;99.90;;;;;;5033720;28;20026;-85
2021/11/05 01:25:51;;;;;;;269.60;75.78;;;12.40;99.90;;;;;;5034276;28;20025;-85
2021/11/05 01:28:17;;;;;;;235.73;66.60;;;12.40;99.90;;;;;;5032814;28;20076;-86
2021/11/05 01:30:43;;;;;;;274.75;74.10;;;12.50;99.90;;;;;;5033559;28;20495;-86
2021/11/05 01:33:10;;;;;;;251.30;73.72;;;12.40;99.90;;;;;;5034918;28;20033;-86
2021/11/05 01:35:38;;;;;;;291.77;79.28;;;12.50;99.90;;;;;;5034776;28;20132;-86
2021/11/05 01:38:09;;;;;;;269.15;74.25;;;12.50;99.90;;;;;;5033823;28;20053;-86
2021/11/05 01:40:37;;;;;;;264.05;76.47;;;12.50;99.90;;;;;;5034436;28;20024;-85
2021/11/05 01:43:03;;;;;;;276.80;79.43;;;12.50;99.90;;;;;;5033556;28;20045;-86
2021/11/05 01:45:30;;;;;;;207.85;65.40;;;12.60;99.90;;;;;;5033550;28;20029;-86
2021/11/05 01:47:57;;;;;;;203.93;62.60;;;12.60;99.90;;;;;;5033521;28;20033;-86
2021/11/05 01:50:23;;;;;;;169.00;55.97;;;12.60;99.90;;;;;;5047071;28;20365;-86
2021/11/05 01:52:50;;;;;;;165.45;54.47;;;12.60;99.90;;;;;;5055002;28;20029;-85
2021/11/05 01:55:16;;;;;;;165.60;55.83;;;12.60;99.90;;;;;;5053308;28;20035;-85
2021/11/05 01:57:43;;;;;;;172.27;54.05;;;12.50;99.90;;;;;;5053152;28;20053;-85
2021/11/05 02:00:12;;;;;;;178.95;56.17;;;12.60;99.90;;;;;;5053398;28;20048;-86
2021/11/05 02:02:38;;;;;;;158.90;51.38;;;12.60;99.90;;;;;;5053204;28;20021;-86
2021/11/05 02:05:04;;;;;;;122.95;48.33;;;12.60;99.90;;;;;;5053091;28;20044;-85
2021/11/05 02:07:34;;;;;;;189.18;56.45;;;12.60;99.90;;;;;;5039220;28;20041;-85
2021/11/05 02:10:03;;;;;;;195.55;56.95;;;12.60;99.90;;;;;;5034344;28;20175;-85
2021/11/05 02:12:30;;;;;;;190.27;59.25;;;12.60;99.90;;;;;;5034361;28;20476;-85
2021/11/05 02:14:58;;;;;;;218.00;63.38;;;12.60;99.90;;;;;;5034307;28;20078;-85
2021/11/05 02:17:24;;;;;;;207.85;60.17;;;12.60;99.90;;;;;;5049372;28;20108;-85
2021/11/05 02:19:51;;;;;;;204.27;59.50;;;12.70;99.90;;;;;;5034165;28;20072;-85
2021/11/05 02:22:17;;;;;;;268.60;69.45;;;12.70;99.90;;;;;;5032684;28;20480;-85
2021/11/05 02:24:42;;;;;;;289.92;73.40;;;12.70;99.90;;;;;;5034027;28;20040;-86
2021/11/05 02:27:09;;;;;;;320.63;77.18;;;12.70;99.90;;;;;;5046285;28;20029;-85
2021/11/05 02:29:35;;;;;;;310.60;77.10;;;12.70;99.90;;;;;;5054055;28;20041;-86
2021/11/05 02:32:02;;;;;;;311.75;80.13;;;12.70;99.90;;;;;;5052235;28;20025;-86
2021/11/05 02:34:29;;;;;;;295.27;78.20;;;12.60;99.90;;;;;;5036331;28;20025;-85
2021/11/05 02:36:55;;;;;;;274.15;73.18;;;12.60;99.90;;;;;;5053850;28;20037;-86
2021/11/05 02:39:23;;;;;;;267.05;71.82;;;12.70;99.90;;;;;;5054042;28;20103;-86
2021/11/05 02:41:50;;;;;;;245.48;66.93;;;12.70;99.90;;;;;;5054163;28;20092;-85
2021/11/05 02:44:17;;;;;;;252.32;65.63;;;12.70;99.90;;;;;;5054050;28;20405;-85
2021/11/05 02:46:43;;;;;;;246.07;65.80;;;12.70;99.90;;;;;;5053458;28;20083;-86
2021/11/05 02:49:10;;;;;;;221.23;62.88;;;12.70;99.90;;;;;;5050757;28;20072;-87
2021/11/05 02:51:38;;;;;;;239.50;63.85;;;12.70;99.90;;;;;;5053365;28;20048;-86
2021/11/05 02:54:05;;;;;;;227.43;65.45;;;12.70;99.90;;;;;;5052616;28;20420;-88
2021/11/05 02:56:32;;;;;;;264.95;64.70;;;12.70;99.90;;;;;;5053317;28;20496;-85
2021/11/05 02:58:58;;;;;;;235.25;66.60;;;12.70;99.90;;;;;;5051960;28;20040;-85
2021/11/05 03:01:25;;;;;;;234.55;64.53;;;12.70;99.90;;;;;;5049962;28;20025;-85
2021/11/05 03:03:51;;;;;;;246.80;68.60;;;12.70;99.90;;;;;;5053177;28;20017;-85
2021/11/05 03:06:17;;;;;;;240.90;63.25;;;12.70;99.90;;;;;;5052336;28;20498;-85
2021/11/05 03:08:43;;;;;;;215.23;61.78;;;12.70;99.90;;;;;;5051897;28;20464;-85
2021/11/05 03:11:12;;;;;;;237.80;68.32;;;12.70;99.90;;;;;;5047402;28;20108;-86
2021/11/05 03:13:43;;;;;;;207.93;58.45;;;12.70;99.90;;;;;;5051810;28;20021;-85
2021/11/05 03:16:10;;;;;;;219.10;56.85;;;12.70;99.90;;;;;;5052126;28;20017;-86
2021/11/05 03:18:40;;;;;;;195.65;60.65;;;12.70;99.90;;;;;;5053018;28;20044;-86
2021/11/05 03:21:08;;;;;;;183.05;53.40;;;12.70;99.90;;;;;;5053472;28;20036;-86
2021/11/05 03:23:35;;;;;;;200.35;52.22;;;12.70;99.90;;;;;;5037085;28;20473;-86
2021/11/05 03:26:00;;;;;;;228.80;59.20;;;12.70;99.90;;;;;;5033176;28;20029;-86
2021/11/05 03:28:26;;;;;;;237.73;62.17;;;12.70;99.90;;;;;;5031716;28;20029;-85
2021/11/05 03:30:52;;;;;;;225.32;60.92;;;12.70;99.90;;;;;;5033474;28;20377;-86
2021/11/05 03:33:19;;;;;;;226.82;63.65;;;12.70;99.90;;;;;;5031617;28;20108;-85
2021/11/05 03:35:44;;;;;;;236.45;61.20;;;12.70;99.90;;;;;;5031451;28;20037;-86
2021/11/05 03:38:10;;;;;;;250.68;63.72;;;12.70;99.90;;;;;;5031726;28;20396;-86
2021/11/05 03:40:36;;;;;;;188.10;57.65;;;12.70;99.90;;;;;;5047859;28;20511;-85
2021/11/05 03:43:03;;;;;;;203.30;60.78;;;12.70;99.90;;;;;;5032758;28;20057;-85
2021/11/05 03:45:29;;;;;;;217.60;62.22;;;12.70;99.90;;;;;;5036182;28;20025;-85
2021/11/05 03:47:55;;;;;;;193.15;58.10;;;12.70;99.90;;;;;;5034641;28;20036;-87
2021/11/05 03:50:22;;;;;;;145.77;53.13;;;12.70;99.90;;;;;;5034971;28;20122;-86
2021/11/05 03:52:48;;;;;;;155.23;55.22;;;12.70;99.90;;;;;;5052743;28;20029;-86
2021/11/05 03:55:14;;;;;;;125.20;48.33;;;12.80;99.90;;;;;;5051904;28;20495;-85
2021/11/05 03:57:40;;;;;;;119.75;50.40;;;12.80;99.90;;;;;;5052330;28;20107;-86
2021/11/05 04:00:10;;;;;;;108.45;50.63;;;12.80;99.90;;;;;;5049177;28;20430;-85
2021/11/05 04:02:37;;;;;;;118.10;50.85;;;12.80;99.90;;;;;;5039965;28;20139;-85
2021/11/05 04:05:04;;;;;;;104.82;53.97;;;12.80;99.90;;;;;;5053582;28;20087;-85
2021/11/05 04:07:30;;;;;;;96.32;47.08;;;12.80;99.90;;;;;;5054989;28;20119;-86
2021/11/05 04:09:56;;;;;;;91.18;47.42;;;12.80;99.90;;;;;;5056325;28;20091;-85
2021/11/05 04:12:22;;;;;;;72.18;40.85;;;12.80;99.90;;;;;;5055117;28;20025;-86
2021/11/05 04:14:47;;;;;;;83.25;41.03;;;12.80;99.90;;;;;;5038425;28;20025;-85
2021/11/05 04:17:13;;;;;;;67.28;35.78;;;12.80;99.90;;;;;;5056302;28;20029;-86
2021/11/05 04:19:40;;;;;;;78.05;36.63;;;12.90;99.90;;;;;;5054974;28;20029;-85
2021/11/05 04:22:07;;;;;;;66.65;33.97;;;12.90;99.90;;;;;;5056845;28;20028;-85
2021/11/05 04:24:33;;;;;;;72.00;35.25;;;12.90;99.90;;;;;;5054884;28;20115;-85
2021/11/05 04:26:58;;;;;;;70.07;35.85;;;12.90;99.90;;;;;;5055039;28;20144;-85
2021/11/05 04:29:25;;;;;;;66.78;34.72;;;12.90;99.90;;;;;;5022352;28;20372;-86
2021/11/05 04:31:50;;;;;;;67.70;35.63;;;12.90;99.90;;;;;;5054238;28;20048;-84
2021/11/05 04:34:16;;;;;;;78.90;40.75;;;12.90;99.90;;;;;;5037382;28;20041;-87
2021/11/05 04:36:42;;;;;;;80.80;40.58;;;12.90;99.90;;;;;;5051583;28;20025;-85
2021/11/05 04:39:14;;;;;;;78.72;40.13;;;12.90;99.90;;;;;;5055674;28;20021;-85
2021/11/05 04:41:40;;;;;;;91.82;41.75;;;12.90;99.90;;;;;;5054613;28;20167;-85
2021/11/05 04:44:06;;;;;;;124.50;44.42;;;12.90;99.90;;;;;;5037988;28;20026;-85
2021/11/05 04:46:31;;;;;;;117.75;46.55;;;12.90;99.90;;;;;;5047786;28;20075;-86
2021/11/05 04:48:58;;;;;;;120.25;49.60;;;12.90;99.90;;;;;;5054736;28;20028;-86
2021/11/05 14:35:43;;;;;;;80.78;46.08;;;14.70;99.90;;;;;;5132793;27;20406;-84
2021/11/05 14:38:11;;;;;;;81.30;47.70;;;14.70;99.90;;;;;;5130691;28;20088;-85
2021/11/05 14:40:39;;;;;;;80.45;45.38;;;14.70;99.90;;;;;;5134907;27;20075;-86
2021/11/05 14:43:16;;;;;;;79.95;45.22;;;14.70;99.90;;;;;;5134286;27;20019;-87
2021/11/05 14:45:44;;;;;;;78.60;44.92;;;14.80;99.90;;;;;;5131815;28;20047;-87
2021/11/05 14:48:18;;;;;;;72.53;43.53;;;14.80;99.90;;;;;;5130212;28;20023;-88
2021/11/05 14:50:46;;;;;;;72.60;42.35;;;14.90;99.90;;;;;;5130321;27;20389;-89
2021/11/05 14:53:28;;;;;;;75.15;42.85;;;14.90;99.90;;;;;;5130409;28;20051;-87
2021/11/05 14:55:54;;;;;;;71.30;42.97;;;14.90;99.90;;;;;;5131134;28;20389;-88
2021/11/05 14:58:23;;;;;;;77.90;43.03;;;14.90;99.90;;;;;;5131878;27;20027;-88
2021/11/05 15:00:59;;;;;;;75.82;43.30;;;15.00;99.90;;;;;;5129814;28;20019;-88
2021/11/05 15:03:26;;;;;;;74.93;44.25;;;15.00;99.90;;;;;;5130505;28;20112;-88
2021/11/05 15:05:54;;;;;;;78.82;43.75;;;15.00;99.90;;;;;;5130997;28;20020;-88
2021/11/05 15:08:20;;;;;;;73.75;41.92;;;15.00;99.90;;;;;;5130246;28;20393;-90
2021/11/05 15:10:46;;;;;;;76.55;43.50;;;15.00;99.90;;;;;;5130528;28;20103;-87
2021/11/05 15:13:14;;;;;;;90.32;55.67;;;15.00;99.90;;;;;;5129624;28;20045;-82
2021/11/05 15:15:44;;;;;;;120.40;76.60;;;15.00;99.90;;;;;;5130321;27;20019;-82
2021/11/05 15:18:11;;;;;;;80.97;47.80;;;15.10;99.90;;;;;;5130347;28;20027;-84
2021/11/05 15:20:37;;;;;;;83.00;47.88;;;15.10;99.90;;;;;;5129522;28;20034;-87
2021/11/05 15:23:04;;;;;;;78.47;45.72;;;15.20;99.90;;;;;;5137243;27;20384;-88
2021/11/05 15:25:30;;;;;;;78.20;45.78;;;15.20;99.90;;;;;;5130235;27;20031;-85
2021/11/05 15:27:58;;;;;;;75.55;44.35;;;15.10;99.90;;;;;;5130320;27;20035;-88
2021/11/05 15:30:27;;;;;;;71.22;43.78;;;15.20;99.90;;;;;;5131701;28;20031;-88
2021/11/05 15:32:53;;;;;;;75.43;43.03;;;15.20;99.90;;;;;;5130381;28;20031;-87
2021/11/05 15:35:18;;;;;;;78.70;44.97;;;15.20;99.90;;;;;;5129890;28;20048;-88
2021/11/05 15:37:44;;;;;;;83.95;45.88;;;15.10;99.90;;;;;;5128320;28;20096;-88
2021/11/05 15:40:13;;;;;;;79.05;45.08;;;15.10;99.90;;;;;;5131107;27;20118;-88
2021/11/05 15:42:41;;;;;;;79.65;45.35;;;15.10;99.90;;;;;;5129311;28;20076;-88
2021/11/05 15:45:07;;;;;;;78.63;46.53;;;15.10;99.90;;;;;;5126204;28;20381;-89
2021/11/05 15:47:33;;;;;;;79.22;47.88;;;15.10;99.90;;;;;;5115196;28;20020;-88
2021/11/05 15:49:59;;;;;;;81.55;47.10;;;15.10;99.90;;;;;;5116105;28;20057;-88
2021/11/05 15:52:25;;;;;;;72.15;44.13;;;15.10;99.90;;;;;;5116450;28;20050;-88
2021/11/05 15:54:51;;;;;;;73.53;45.25;;;15.10;99.90;;;;;;5115396;28;20413;-88
2021/11/05 15:57:17;;;;;;;83.60;46.92;;;15.10;99.90;;;;;;5116370;28;20126;-88
2021/11/05 15:59:46;;;;;;;79.95;45.17;;;15.10;99.90;;;;;;5116173;28;20048;-88
2021/11/05 16:02:12;;;;;;;88.20;48.22;;;15.10;99.90;;;;;;5115552;28;20023;-89
2021/11/05 16:04:38;;;;;;;85.80;45.33;;;15.10;99.90;;;;;;5115880;28;20031;-89
2021/11/05 16:07:04;;;;;;;78.40;46.22;;;15.10;99.90;;;;;;5116369;28;20024;-90
2021/11/05 16:09:30;;;;;;;82.75;45.20;;;15.10;99.90;;;;;;5115584;28;20112;-89
2021/11/05 16:11:55;;;;;;;83.75;49.10;;;15.10;99.90;;;;;;5115058;28;20028;-87
2021/11/05 16:14:23;;;;;;;91.05;51.10;;;15.10;99.90;;;;;;5116605;28;20073;-86
2021/11/05 16:16:49;;;;;;;128.07;81.80;;;15.00;99.90;;;;;;5116080;28;20072;-86
2021/11/05 16:19:15;;;;;;;147.63;93.18;;;15.10;99.90;;;;;;5115150;28;20118;-88
2021/11/05 16:21:40;;;;;;;100.38;57.65;;;15.10;99.90;;;;;;5114917;28;20051;-87
2021/11/05 16:24:06;;;;;;;101.15;57.67;;;15.10;99.90;;;;;;5115114;28;20027;-90
2021/11/05 16:26:35;;;;;;;93.68;52.42;;;15.00;99.90;;;;;;5115794;28;20473;-90
2021/11/05 16:29:01;;;;;;;94.47;53.10;;;15.00;99.90;;;;;;5115748;28;20043;-90
2021/11/05 16:31:26;;;;;;;93.13;53.33;;;15.00;99.90;;;;;;5115378;28;20034;-86
2021/11/05 16:33:52;;;;;;;95.22;54.47;;;15.00;99.90;;;;;;5114847;28;20135;-95
2021/11/05 16:36:18;;;;;;;104.43;58.15;;;15.00;99.90;;;;;;5115561;28;20031;-92
2021/11/05 16:38:44;;;;;;;107.05;59.65;;;15.00;99.90;;;;;;5116089;28;20477;-96
2021/11/05 16:41:09;;;;;;;107.10;59.70;;;15.00;99.90;;;;;;5117988;28;20076;-91
2021/11/05 16:43:36;;;;;;;109.30;60.40;;;15.00;99.90;;;;;;5115523;28;20023;-90
2021/11/05 16:46:02;;;;;;;104.57;59.42;;;15.00;99.90;;;;;;5115423;28;20024;-89
2021/11/05 16:48:28;;;;;;;100.20;57.70;;;14.90;99.90;;;;;;5115250;28;20027;-91
2021/11/05 16:50:55;;;;;;;97.28;56.75;;;15.00;99.90;;;;;;5115240;28;20032;-90
2021/11/05 16:53:21;;;;;;;91.82;54.67;;;15.00;99.90;;;;;;5115030;28;20023;-89
2021/11/05 16:55:47;;;;;;;82.03;49.63;;;15.00;99.90;;;;;;5115122;28;20092;-91
2021/11/05 16:58:13;;;;;;;75.85;46.15;;;15.00;99.90;;;;;;5114098;28;20015;-91
2021/11/05 17:00:40;;;;;;;79.40;45.95;;;15.00;99.90;;;;;;5114834;28;20020;-89
2021/11/05 17:03:08;;;;;;;71.97;46.58;;;15.00;99.90;;;;;;5115068;28;20050;-89
2021/11/05 17:05:34;;;;;;;75.22;45.10;;;15.00;99.90;;;;;;5114894;28;20442;-89
2021/11/05 17:07:59;;;;;;;72.85;44.40;;;15.00;99.90;;;;;;5115017;28;20054;-90
2021/11/05 17:10:26;;;;;;;68.47;42.20;;;15.00;99.90;;;;;;5114777;28;20107;-91
2021/11/05 17:12:52;;;;;;;69.38;42.42;;;15.00;99.90;;;;;;5114869;28;20077;-89
2021/11/05 17:15:19;;;;;;;73.25;43.58;;;15.00;99.90;;;;;;5114219;28;20019;-87
2021/11/05 17:17:47;;;;;;;74.78;42.50;;;15.00;99.90;;;;;;5114713;28;20020;-91
2021/11/05 17:20:14;;;;;;;66.47;38.53;;;15.00;99.90;;;;;;5114329;28;20032;-88
2021/11/05 17:22:41;;;;;;;66.60;39.72;;;15.00;99.90;;;;;;5114703;28;20019;-90
2021/11/05 17:25:09;;;;;;;72.40;42.78;;;15.00;99.90;;;;;;5113913;28;20031;-87
2021/11/05 17:27:36;;;;;;;73.90;42.55;;;15.00;99.90;;;;;;5113776;28;20486;-87
2021/11/05 17:30:02;;;;;;;72.25;40.53;;;15.00;99.90;;;;;;5113729;28;20039;-90
2021/11/05 17:32:28;;;;;;;94.65;50.63;;;15.00;99.90;;;;;;5113286;28;20027;-89
2021/11/05 17:34:55;;;;;;;119.65;86.45;;;14.90;99.90;;;;;;5111792;28;20058;-89
2021/11/05 17:37:22;;;;;;;73.70;42.47;;;15.00;99.90;;;;;;5112328;28;20027;-86
2021/11/05 17:39:49;;;;;;;67.03;40.13;;;15.00;99.90;;;;;;5112885;28;20024;-87
2021/11/05 17:42:15;;;;;;;70.85;41.42;;;15.00;99.90;;;;;;5113946;28;20024;-89
2021/11/05 17:44:41;;;;;;;73.57;43.40;;;15.00;99.90;;;;;;5113735;28;20030;-88
2021/11/05 17:47:07;;;;;;;67.43;41.53;;;15.00;99.90;;;;;;5114260;28;20019;-89
2021/11/05 17:49:33;;;;;;;69.78;42.72;;;15.00;99.90;;;;;;5114009;28;20041;-89
2021/11/05 17:51:59;;;;;;;71.70;40.80;;;15.00;99.90;;;;;;5114034;28;20062;-91
2021/11/05 17:54:24;;;;;;;74.80;41.40;;;15.00;99.90;;;;;;5113933;28;20035;-89
2021/11/05 17:56:50;;;;;;;75.22;42.30;;;15.00;99.90;;;;;;5113967;28;20039;-90
2021/11/05 17:59:17;;;;;;;64.75;39.47;;;15.00;99.90;;;;;;5113792;28;20053;-89
2021/11/05 18:01:44;;;;;;;63.00;39.13;;;15.00;99.90;;;;;;5113944;28;20019;-90
2021/11/05 18:04:29;;;;;;;64.78;37.45;;;15.00;99.90;;;;;;5113836;28;20032;-90
2021/11/05 18:06:55;;;;;;;70.15;39.33;;;15.00;99.90;;;;;;5113915;28;20024;-89
2021/11/05 18:09:21;;;;;;;79.05;41.63;;;15.00;99.90;;;;;;5113248;28;20611;-90
2021/11/05 18:11:47;;;;;;;66.82;39.65;;;15.00;99.90;;;;;;5113723;28;20464;-90
2021/11/05 18:14:17;;;;;;;69.20;39.90;;;15.00;99.90;;;;;;5113813;28;20027;-91
2021/11/05 18:16:44;;;;;;;;;;;15.00;99.90;;;;;;5114161;28;20129;-90
2021/11/05 18:19:11;;;;;;;75.72;41.03;;;14.90;99.90;;;;;;5113116;28;19903;-90
2021/11/05 18:21:37;;;;;;;72.50;43.53;;;14.90;99.90;;;;;;5113412;28;20016;-91
2021/11/05 18:24:04;;;;;;;88.75;44.85;;;14.90;99.90;;;;;;5113735;28;20092;-89
2021/11/05 18:26:30;;;;;;;76.75;42.22;;;14.90;99.90;;;;;;5113564;28;20024;-92
2021/11/05 18:28:56;;;;;;;81.50;44.92;;;14.90;99.90;;;;;;5113678;28;20081;-88
2021/11/05 18:31:22;;;;;;;76.03;42.72;;;14.90;99.90;;;;;;5113394;28;20059;-90
2021/11/05 18:33:49;;;;;;;75.68;42.67;;;14.90;99.90;;;;;;5113151;28;20062;-91
2021/11/05 18:36:16;;;;;;;77.95;41.17;;;14.90;99.90;;;;;;5113245;28;20493;-90
2021/11/05 18:38:45;;;;;;;78.22;42.92;;;14.90;99.90;;;;;;5113202;28;20531;-87
2021/11/05 18:41:12;;;;;;;81.22;41.75;;;14.90;99.90;;;;;;5113776;28;20028;-89
2021/11/05 18:43:39;;;;;;;75.68;43.10;;;14.90;99.90;;;;;;5113168;28;20362;-88
2021/11/05 18:46:05;;;;;;;79.38;45.40;;;14.90;99.90;;;;;;5114640;28;20096;-91
2021/11/05 18:48:31;;;;;;;77.53;44.58;;;14.90;99.90;;;;;;5112816;28;20377;-89
2021/11/05 18:50:59;;;;;;;75.10;43.30;;;14.90;99.90;;;;;;5113494;28;20031;-91
2021/11/05 18:53:25;;;;;;;82.32;44.95;;;14.90;99.90;;;;;;5113415;28;20450;-89
2021/11/05 18:55:50;;;;;;;82.80;44.17;;;14.90;99.90;;;;;;5113162;28;20043;-90
2021/11/05 18:58:16;;;;;;;82.82;45.53;;;14.80;99.90;;;;;;5110815;28;20042;-89
2021/11/05 19:00:46;;;;;;;76.43;43.40;;;14.80;99.90;;;;;;5113023;28;20069;-87
2021/11/05 19:03:22;;;;;;;83.72;46.25;;;14.80;99.90;;;;;;5113213;28;20385;-92
2021/11/05 19:05:56;;;;;;;86.07;45.25;;;14.80;99.90;;;;;;5112336;28;20065;-92
2021/11/05 19:08:23;;;;;;;84.55;44.17;;;14.70;99.90;;;;;;5113220;28;20023;-87
2021/11/05 19:10:55;;;;;;;110.57;52.65;;;14.80;99.90;;;;;;5113036;28;20024;-90
2021/11/05 19:13:26;;;;;;;94.32;49.22;;;14.70;99.90;;;;;;5112844;28;20023;-90
2021/11/05 19:15:54;;;;;;;99.40;52.80;;;14.70;99.90;;;;;;5108846;28;20020;-88
2021/11/05 19:18:20;;;;;;;93.72;51.20;;;14.70;99.90;;;;;;5112911;28;20028;-89
2021/11/05 19:20:46;;;;;;;95.75;52.33;;;14.70;99.90;;;;;;5114166;28;20482;-84
2021/11/05 19:23:12;;;;;;;99.10;51.58;;;14.70;99.90;;;;;;5116644;28;20024;-90
2021/11/05 19:25:40;;;;;;;108.88;69.07;;;14.70;99.90;;;;;;5116916;28;20422;-93
2021/11/05 19:28:08;;;;;;;105.50;62.85;;;14.70;99.90;;;;;;5116601;28;20358;-89
2021/11/05 19:30:36;;;;;;;106.03;55.03;;;14.70;99.90;;;;;;5116409;28;20508;-88
2021/11/05 19:33:03;;;;;;;100.28;50.25;;;14.70;99.90;;;;;;5116260;28;20083;-89
2021/11/05 19:35:28;;;;;;;90.55;50.35;;;14.70;99.90;;;;;;5116022;28;20391;-87
2021/11/05 19:37:56;;;;;;;97.63;51.40;;;14.60;99.90;;;;;;5116579;28;20031;-87
2021/11/05 19:40:22;;;;;;;95.03;48.55;;;14.60;99.90;;;;;;5115831;28;20031;-85
2021/11/05 19:42:48;;;;;;;96.50;50.85;;;14.60;99.90;;;;;;5115963;28;20042;-87
2021/11/05 19:45:15;;;;;;;98.35;48.63;;;14.60;99.90;;;;;;5116275;28;20024;-88
2021/11/05 19:47:43;;;;;;;102.88;52.42;;;14.60;99.90;;;;;;5116365;28;20055;-88
2021/11/05 19:50:09;;;;;;;102.57;49.05;;;14.50;99.90;;;;;;5116209;28;20027;-84
2021/11/05 19:52:35;;;;;;;106.13;53.25;;;14.60;99.90;;;;;;5116093;28;20046;-87
2021/11/05 19:55:01;;;;;;;110.22;53.05;;;14.50;99.90;;;;;;5115770;28;20031;-84
2021/11/05 19:57:27;;;;;;;100.72;49.25;;;14.50;99.90;;;;;;5115143;28;20471;-86
2021/11/05 19:59:55;;;;;;;102.15;49.17;;;14.50;99.90;;;;;;5117346;28;20015;-84
2021/11/05 20:02:22;;;;;;;104.80;48.53;;;14.50;99.90;;;;;;5115551;28;20016;-84
2021/11/05 20:04:49;;;;;;;111.25;50.35;;;14.50;99.90;;;;;;5115631;28;20034;-85
2021/11/05 20:07:15;;;;;;;98.57;45.70;;;14.50;99.90;;;;;;5115378;28;20028;-86
2021/11/05 20:09:41;;;;;;;103.82;45.60;;;14.50;99.90;;;;;;5115510;28;20115;-84
2021/11/05 20:12:07;;;;;;;102.97;48.35;;;14.50;99.90;;;;;;5115192;28;20482;-85
2021/11/05 20:14:33;;;;;;;97.28;46.83;;;14.50;99.90;;;;;;5116491;28;20028;-85
2021/11/05 20:17:04;;;;;;;102.15;48.53;;;14.50;99.90;;;;;;5115117;28;20153;-84
2021/11/05 20:19:30;;;;;;;103.43;48.13;;;14.50;99.90;;;;;;5115195;28;20058;-86
2021/11/05 20:21:56;;;;;;;108.65;49.88;;;14.50;99.90;;;;;;5116306;28;20378;-84
2021/11/05 20:24:22;;;;;;;125.72;53.42;;;14.40;99.90;;;;;;5114798;28;20055;-84
2021/11/05 20:26:48;;;;;;;117.25;56.30;;;14.40;99.90;;;;;;5115208;28;20031;-85
2021/11/05 20:29:15;;;;;;;109.15;50.35;;;14.40;99.90;;;;;;5115179;28;20114;-85
2021/11/05 20:31:41;;;;;;;118.32;50.08;;;14.50;99.90;;;;;;5114732;28;20076;-85
2021/11/05 20:34:10;;;;;;;107.82;49.45;;;14.40;99.90;;;;;;5114934;28;20055;-84
2021/11/05 20:36:39;;;;;;;120.32;49.58;;;14.40;99.90;;;;;;5115095;28;20378;-86
2021/11/05 20:39:06;;;;;;;105.10;48.60;;;14.50;99.90;;;;;;5114380;28;20073;-89
2021/11/05 20:41:32;;;;;;;108.32;49.78;;;14.50;99.90;;;;;;5115068;28;20020;-86
2021/11/05 20:43:58;;;;;;;114.20;48.55;;;14.40;99.90;;;;;;5114815;28;20122;-86
2021/11/05 20:46:24;;;;;;;121.85;49.85;;;14.40;99.90;;;;;;5114451;28;20176;-88
2021/11/05 20:48:50;;;;;;;127.20;52.85;;;14.50;99.90;;;;;;5114324;28;20028;-85
2021/11/05 20:51:16;;;;;;;133.75;51.60;;;14.40;99.90;;;;;;5114530;28;20051;-86
2021/11/05 20:53:42;;;;;;;111.13;49.22;;;14.40;99.90;;;;;;5114615;28;20478;-87
2021/11/05 20:56:13;;;;;;;113.53;50.65;;;14.40;99.90;;;;;;5114490;28;20072;-85
2021/11/05 20:58:39;;;;;;;114.93;50.00;;;14.40;99.90;;;;;;5115493;28;20023;-86
2021/11/05 21:01:07;;;;;;;122.38;49.47;;;14.40;99.90;;;;;;5114275;28;20024;-85
2021/11/05 21:03:33;;;;;;;126.82;53.55;;;14.40;99.90;;;;;;5114383;28;20027;-88
2021/11/05 21:06:00;;;;;;;124.75;53.10;;;14.40;99.90;;;;;;5115400;28;20124;-86
2021/11/05 21:08:26;;;;;;;125.93;54.35;;;14.40;99.90;;;;;;5114516;28;20074;-86
2021/11/05 21:10:52;;;;;;;113.55;52.40;;;14.40;99.90;;;;;;5114503;28;20024;-87
2021/11/05 21:13:18;;;;;;;113.70;52.22;;;14.40;99.90;;;;;;5114382;28;20030;-84
2021/11/05 21:15:45;;;;;;;116.50;53.75;;;14.40;99.90;;;;;;5115328;28;20024;-85
2021/11/05 21:18:11;;;;;;;117.93;49.88;;;14.40;99.90;;;;;;5114460;28;20416;-85
2021/11/05 21:20:37;;;;;;;115.43;50.45;;;14.40;99.90;;;;;;5114324;28;20020;-87
2021/11/05 21:23:05;;;;;;;113.20;52.30;;;14.40;99.90;;;;;;5115544;28;20020;-84
2021/11/05 21:25:32;;;;;;;117.65;51.67;;;14.40;99.90;;;;;;5114168;28;20023;-87
2021/11/05 21:27:58;;;;;;;118.13;50.95;;;14.40;99.90;;;;;;5113887;28;20476;-86
2021/11/05 21:30:23;;;;;;;111.85;49.60;;;14.40;99.90;;;;;;5113845;28;20019;-87
2021/11/05 21:32:49;;;;;;;128.85;51.88;;;14.40;99.90;;;;;;5115329;28;20032;-86
2021/11/05 21:35:15;;;;;;;123.32;49.78;;;14.40;99.90;;;;;;5113946;28;20048;-86
2021/11/05 21:37:42;;;;;;;121.18;50.60;;;14.40;99.90;;;;;;5115748;28;20469;-84
2021/11/05 21:40:09;;;;;;;126.47;50.70;;;14.40;99.90;;;;;;5115150;28;20517;-86
2021/11/05 21:42:39;;;;;;;129.93;52.25;;;14.40;99.90;;;;;;5113916;28;20065;-86
2021/11/05 21:45:06;;;;;;;121.65;48.78;;;14.30;99.90;;;;;;5113347;28;20030;-87
2021/11/05 21:47:32;;;;;;;128.93;49.85;;;14.40;99.90;;;;;;5113570;28;20023;-85
2021/11/05 21:50:00;;;;;;;112.88;47.60;;;14.30;99.90;;;;;;5113788;28;20027;-86
2021/11/05 21:52:26;;;;;;;132.82;53.28;;;14.30;99.90;;;;;;5113713;28;20391;-85
2021/11/05 21:54:52;;;;;;;124.57;50.78;;;14.30;99.90;;;;;;5113669;28;20032;-87
2021/11/05 21:57:18;;;;;;;126.25;49.42;;;14.40;99.90;;;;;;5113810;28;20023;-87
2021/11/05 21:59:44;;;;;;;132.00;51.58;;;14.40;99.90;;;;;;5115002;28;20098;-86
2021/11/05 22:02:10;;;;;;;145.07;55.40;;;14.30;99.90;;;;;;5113485;28;20024;-86